sensor_id;sensor_type;location;lat;lon;timestamp;temperature;humidity
77052;SHT30;65980;44.898;8.602;2024-01-06T00:01:10;4.31;88.96
77052;SHT30;65980;44.898;8.602;2024-01-06T00:04:18;4.33;89.11
77052;SHT30;65980;44.898;8.602;2024-01-06T00:07:22;4.44;88.93
77052;SHT30;65980;44.898;8.602;2024-01-06T00:10:26;4.65;89.31
77052;SHT30;65980;44.898;8.602;2024-01-06T00:13:32;4.80;88.90
77052;SHT30;65980;44.898;8.602;2024-01-06T00:16:36;4.72;87.30
77052;SHT30;65980;44.898;8.602;2024-01-06T00:19:40;4.80;87.37
77052;SHT30;65980;44.898;8.602;2024-01-06T00:22:44;4.92;87.73
77052;SHT30;65980;44.898;8.602;2024-01-06T00:25:49;5.04;87.08
77052;SHT30;65980;44.898;8.602;2024-01-06T00:28:54;4.93;86.56
77052;SHT30;65980;44.898;8.602;2024-01-06T00:31:58;4.73;86.77
77052;SHT30;65980;44.898;8.602;2024-01-06T00:35:03;4.69;86.72
77052;SHT30;65980;44.898;8.602;2024-01-06T00:38:07;4.59;86.67
77052;SHT30;65980;44.898;8.602;2024-01-06T00:41:11;4.44;87.40
77052;SHT30;65980;44.898;8.602;2024-01-06T00:44:16;4.37;87.96
77052;SHT30;65980;44.898;8.602;2024-01-06T00:47:21;4.44;87.30
77052;SHT30;65980;44.898;8.602;2024-01-06T00:50:27;4.24;87.73
77052;SHT30;65980;44.898;8.602;2024-01-06T00:53:31;4.17;88.23
77052;SHT30;65980;44.898;8.602;2024-01-06T00:56:35;4.16;88.60
77052;SHT30;65980;44.898;8.602;2024-01-06T00:59:39;4.13;88.77
77052;SHT30;65980;44.898;8.602;2024-01-06T01:02:44;4.11;88.49
77052;SHT30;65980;44.898;8.602;2024-01-06T01:05:49;4.21;88.17
77052;SHT30;65980;44.898;8.602;2024-01-06T01:08:54;4.20;88.45
77052;SHT30;65980;44.898;8.602;2024-01-06T01:11:58;4.23;88.25
77052;SHT30;65980;44.898;8.602;2024-01-06T01:15:02;4.10;88.41
77052;SHT30;65980;44.898;8.602;2024-01-06T01:18:08;4.11;88.19
77052;SHT30;65980;44.898;8.602;2024-01-06T01:21:12;4.09;88.60
77052;SHT30;65980;44.898;8.602;2024-01-06T01:24:17;4.00;88.47
77052;SHT30;65980;44.898;8.602;2024-01-06T01:27:22;3.90;88.30
77052;SHT30;65980;44.898;8.602;2024-01-06T01:30:27;3.90;88.44
77052;SHT30;65980;44.898;8.602;2024-01-06T01:33:31;3.86;88.52
77052;SHT30;65980;44.898;8.602;2024-01-06T01:36:35;3.87;88.13
77052;SHT30;65980;44.898;8.602;2024-01-06T01:39:39;3.86;88.15
77052;SHT30;65980;44.898;8.602;2024-01-06T01:42:43;3.76;88.27
77052;SHT30;65980;44.898;8.602;2024-01-06T01:45:50;3.75;88.70
77052;SHT30;65980;44.898;8.602;2024-01-06T01:48:57;3.78;88.79
77052;SHT30;65980;44.898;8.602;2024-01-06T01:52:01;3.74;88.71
77052;SHT30;65980;44.898;8.602;2024-01-06T01:55:07;3.76;88.69
77052;SHT30;65980;44.898;8.602;2024-01-06T01:58:13;3.76;89.15
77052;SHT30;65980;44.898;8.602;2024-01-06T02:01:17;3.75;88.80
77052;SHT30;65980;44.898;8.602;2024-01-06T02:04:22;3.69;89.17
77052;SHT30;65980;44.898;8.602;2024-01-06T02:07:26;3.75;88.45
77052;SHT30;65980;44.898;8.602;2024-01-06T02:10:34;3.76;88.95
77052;SHT30;65980;44.898;8.602;2024-01-06T02:13:38;3.81;89.07
77052;SHT30;65980;44.898;8.602;2024-01-06T02:16:43;3.79;89.09
77052;SHT30;65980;44.898;8.602;2024-01-06T02:19:47;3.81;88.33
77052;SHT30;65980;44.898;8.602;2024-01-06T02:22:51;3.83;88.50
77052;SHT30;65980;44.898;8.602;2024-01-06T02:25:56;3.96;88.09
77052;SHT30;65980;44.898;8.602;2024-01-06T02:29:00;3.93;87.96
77052;SHT30;65980;44.898;8.602;2024-01-06T02:32:05;3.87;88.05
77052;SHT30;65980;44.898;8.602;2024-01-06T02:35:09;3.76;88.33
77052;SHT30;65980;44.898;8.602;2024-01-06T02:38:13;3.75;88.83
77052;SHT30;65980;44.898;8.602;2024-01-06T02:41:17;3.87;88.48
77052;SHT30;65980;44.898;8.602;2024-01-06T02:44:21;3.78;88.37
77052;SHT30;65980;44.898;8.602;2024-01-06T02:47:25;3.79;88.84
77052;SHT30;65980;44.898;8.602;2024-01-06T02:50:29;3.89;88.16
77052;SHT30;65980;44.898;8.602;2024-01-06T02:53:33;3.89;88.04
77052;SHT30;65980;44.898;8.602;2024-01-06T02:56:37;3.92;88.09
77052;SHT30;65980;44.898;8.602;2024-01-06T02:59:42;3.92;87.86
77052;SHT30;65980;44.898;8.602;2024-01-06T03:02:46;3.90;88.18
77052;SHT30;65980;44.898;8.602;2024-01-06T03:05:50;3.96;88.11
77052;SHT30;65980;44.898;8.602;2024-01-06T03:08:54;4.07;88.37
77052;SHT30;65980;44.898;8.602;2024-01-06T03:11:58;4.00;87.55
77052;SHT30;65980;44.898;8.602;2024-01-06T03:15:02;4.02;87.97
77052;SHT30;65980;44.898;8.602;2024-01-06T03:18:07;4.02;88.13
77052;SHT30;65980;44.898;8.602;2024-01-06T03:21:19;4.14;87.77
77052;SHT30;65980;44.898;8.602;2024-01-06T03:24:24;4.02;87.32
77052;SHT30;65980;44.898;8.602;2024-01-06T03:27:29;4.03;87.68
77052;SHT30;65980;44.898;8.602;2024-01-06T03:30:33;3.97;88.05
77052;SHT30;65980;44.898;8.602;2024-01-06T03:33:37;3.97;88.25
77052;SHT30;65980;44.898;8.602;2024-01-06T03:36:41;3.96;88.27
77052;SHT30;65980;44.898;8.602;2024-01-06T03:39:45;4.00;88.13
77052;SHT30;65980;44.898;8.602;2024-01-06T03:42:49;4.09;87.95
77052;SHT30;65980;44.898;8.602;2024-01-06T03:45:53;3.86;88.78
77052;SHT30;65980;44.898;8.602;2024-01-06T03:48:59;3.85;88.68
77052;SHT30;65980;44.898;8.602;2024-01-06T03:52:04;3.82;88.69
77052;SHT30;65980;44.898;8.602;2024-01-06T03:55:08;3.81;88.68
77052;SHT30;65980;44.898;8.602;2024-01-06T03:58:13;3.79;89.08
77052;SHT30;65980;44.898;8.602;2024-01-06T04:01:17;3.82;88.48
77052;SHT30;65980;44.898;8.602;2024-01-06T04:04:22;3.83;88.37
77052;SHT30;65980;44.898;8.602;2024-01-06T04:07:26;3.87;88.51
77052;SHT30;65980;44.898;8.602;2024-01-06T04:10:30;3.96;88.44
77052;SHT30;65980;44.898;8.602;2024-01-06T04:13:34;3.95;88.36
77052;SHT30;65980;44.898;8.602;2024-01-06T04:16:38;4.00;87.79
77052;SHT30;65980;44.898;8.602;2024-01-06T04:19:42;4.09;87.78
77052;SHT30;65980;44.898;8.602;2024-01-06T04:22:46;4.18;87.35
77052;SHT30;65980;44.898;8.602;2024-01-06T04:25:51;4.30;87.71
77052;SHT30;65980;44.898;8.602;2024-01-06T04:28:55;4.31;87.41
77052;SHT30;65980;44.898;8.602;2024-01-06T04:31:59;4.21;87.24
77052;SHT30;65980;44.898;8.602;2024-01-06T04:35:03;4.13;87.74
77052;SHT30;65980;44.898;8.602;2024-01-06T04:38:07;4.09;87.93
77052;SHT30;65980;44.898;8.602;2024-01-06T04:41:11;4.11;88.00
77052;SHT30;65980;44.898;8.602;2024-01-06T04:44:15;4.16;87.94
77052;SHT30;65980;44.898;8.602;2024-01-06T04:47:20;4.20;87.40
77052;SHT30;65980;44.898;8.602;2024-01-06T04:50:24;4.37;87.54
77052;SHT30;65980;44.898;8.602;2024-01-06T04:53:28;4.54;87.38
77052;SHT30;65980;44.898;8.602;2024-01-06T04:56:32;4.59;87.37
77052;SHT30;65980;44.898;8.602;2024-01-06T04:59:37;4.82;87.34
77052;SHT30;65980;44.898;8.602;2024-01-06T05:02:41;4.85;86.82
77052;SHT30;65980;44.898;8.602;2024-01-06T05:05:46;4.93;86.61
77052;SHT30;65980;44.898;8.602;2024-01-06T05:08:50;4.93;85.74
77052;SHT30;65980;44.898;8.602;2024-01-06T05:11:54;4.82;86.95
77052;SHT30;65980;44.898;8.602;2024-01-06T05:14:59;4.96;87.09
77052;SHT30;65980;44.898;8.602;2024-01-06T05:18:04;5.01;87.01
77052;SHT30;65980;44.898;8.602;2024-01-06T05:21:09;4.71;86.65
77052;SHT30;65980;44.898;8.602;2024-01-06T05:24:16;4.55;87.32
77052;SHT30;65980;44.898;8.602;2024-01-06T05:27:21;4.42;88.17
77052;SHT30;65980;44.898;8.602;2024-01-06T05:30:25;4.48;87.86
77052;SHT30;65980;44.898;8.602;2024-01-06T05:33:29;4.45;88.38
77052;SHT30;65980;44.898;8.602;2024-01-06T05:36:33;4.48;88.64
77052;SHT30;65980;44.898;8.602;2024-01-06T05:39:38;4.55;88.33
77052;SHT30;65980;44.898;8.602;2024-01-06T05:42:44;4.71;88.21
77052;SHT30;65980;44.898;8.602;2024-01-06T05:45:50;4.73;87.46
77052;SHT30;65980;44.898;8.602;2024-01-06T05:48:54;4.62;88.12
77052;SHT30;65980;44.898;8.602;2024-01-06T05:52:00;4.52;87.91
77052;SHT30;65980;44.898;8.602;2024-01-06T05:55:05;4.71;87.33
77052;SHT30;65980;44.898;8.602;2024-01-06T05:58:09;4.68;86.89
77052;SHT30;65980;44.898;8.602;2024-01-06T06:01:12;4.51;87.06
77052;SHT30;65980;44.898;8.602;2024-01-06T06:04:17;4.38;88.06
77052;SHT30;65980;44.898;8.602;2024-01-06T06:07:21;4.40;88.37
77052;SHT30;65980;44.898;8.602;2024-01-06T06:10:25;4.64;87.84
77052;SHT30;65980;44.898;8.602;2024-01-06T06:13:44;4.54;87.81
77052;SHT30;65980;44.898;8.602;2024-01-06T06:16:48;4.62;87.71
77052;SHT30;65980;44.898;8.602;2024-01-06T06:19:52;4.58;87.30
77052;SHT30;65980;44.898;8.602;2024-01-06T06:22:56;4.52;87.51
77052;SHT30;65980;44.898;8.602;2024-01-06T06:26:07;4.59;87.45
77052;SHT30;65980;44.898;8.602;2024-01-06T06:29:12;4.58;88.47
77052;SHT30;65980;44.898;8.602;2024-01-06T06:32:17;4.52;87.86
77052;SHT30;65980;44.898;8.602;2024-01-06T06:35:23;4.41;88.17
77052;SHT30;65980;44.898;8.602;2024-01-06T06:38:27;4.57;88.47
77052;SHT30;65980;44.898;8.602;2024-01-06T06:41:31;4.68;89.54
77052;SHT30;65980;44.898;8.602;2024-01-06T06:44:35;4.75;89.09
77052;SHT30;65980;44.898;8.602;2024-01-06T06:47:39;4.85;89.02
77052;SHT30;65980;44.898;8.602;2024-01-06T06:50:45;4.97;88.53
77052;SHT30;65980;44.898;8.602;2024-01-06T06:53:49;5.12;88.25
77052;SHT30;65980;44.898;8.602;2024-01-06T06:56:55;5.31;87.82
77052;SHT30;65980;44.898;8.602;2024-01-06T06:59:59;5.14;87.65
77052;SHT30;65980;44.898;8.602;2024-01-06T07:03:05;5.32;87.06
77052;SHT30;65980;44.898;8.602;2024-01-06T07:06:13;5.35;86.81
77052;SHT30;65980;44.898;8.602;2024-01-06T07:09:18;4.97;86.53
77052;SHT30;65980;44.898;8.602;2024-01-06T07:12:22;5.01;86.52
77052;SHT30;65980;44.898;8.602;2024-01-06T07:15:52;4.87;87.82
77052;SHT30;65980;44.898;8.602;2024-01-06T07:18:57;4.76;87.88
77052;SHT30;65980;44.898;8.602;2024-01-06T07:22:03;4.95;87.54
77052;SHT30;65980;44.898;8.602;2024-01-06T07:25:09;5.04;87.38
77052;SHT30;65980;44.898;8.602;2024-01-06T07:28:14;5.19;87.45
77052;SHT30;65980;44.898;8.602;2024-01-06T07:31:17;5.24;87.65
77052;SHT30;65980;44.898;8.602;2024-01-06T07:34:22;5.34;87.24
77052;SHT30;65980;44.898;8.602;2024-01-06T07:37:26;5.28;87.28
77052;SHT30;65980;44.898;8.602;2024-01-06T07:40:31;5.52;87.22
77052;SHT30;65980;44.898;8.602;2024-01-06T07:43:35;5.66;87.01
77052;SHT30;65980;44.898;8.602;2024-01-06T07:46:40;5.44;86.93
77052;SHT30;65980;44.898;8.602;2024-01-06T07:49:44;5.63;86.90
77052;SHT30;65980;44.898;8.602;2024-01-06T07:52:48;5.65;86.52
77052;SHT30;65980;44.898;8.602;2024-01-06T07:55:54;5.60;86.18
77052;SHT30;65980;44.898;8.602;2024-01-06T07:58:58;5.68;86.24
77052;SHT30;65980;44.898;8.602;2024-01-06T08:02:05;5.59;86.57
77052;SHT30;65980;44.898;8.602;2024-01-06T08:05:10;5.73;86.65
77052;SHT30;65980;44.898;8.602;2024-01-06T08:08:14;5.60;86.90
77052;SHT30;65980;44.898;8.602;2024-01-06T08:11:21;5.70;86.35
77052;SHT30;65980;44.898;8.602;2024-01-06T08:14:26;5.76;86.42
77052;SHT30;65980;44.898;8.602;2024-01-06T08:17:30;5.90;86.36
77052;SHT30;65980;44.898;8.602;2024-01-06T08:20:34;5.99;85.61
77052;SHT30;65980;44.898;8.602;2024-01-06T08:23:39;6.03;85.72
77052;SHT30;65980;44.898;8.602;2024-01-06T08:26:43;5.97;85.56
77052;SHT30;65980;44.898;8.602;2024-01-06T08:29:47;5.82;86.24
77052;SHT30;65980;44.898;8.602;2024-01-06T08:32:51;5.89;86.02
77052;SHT30;65980;44.898;8.602;2024-01-06T08:35:55;5.73;85.82
77052;SHT30;65980;44.898;8.602;2024-01-06T08:39:00;5.79;86.31
77052;SHT30;65980;44.898;8.602;2024-01-06T08:42:04;5.92;86.40
77052;SHT30;65980;44.898;8.602;2024-01-06T08:45:08;6.04;85.57
77052;SHT30;65980;44.898;8.602;2024-01-06T08:48:13;6.11;85.19
77052;SHT30;65980;44.898;8.602;2024-01-06T08:51:18;6.16;84.86
77052;SHT30;65980;44.898;8.602;2024-01-06T08:54:24;6.09;85.77
77052;SHT30;65980;44.898;8.602;2024-01-06T08:57:28;6.04;85.44
77052;SHT30;65980;44.898;8.602;2024-01-06T09:00:32;6.11;85.90
77052;SHT30;65980;44.898;8.602;2024-01-06T09:03:36;6.18;86.54
77052;SHT30;65980;44.898;8.602;2024-01-06T09:06:41;6.32;85.68
77052;SHT30;65980;44.898;8.602;2024-01-06T09:09:52;6.28;86.31
77052;SHT30;65980;44.898;8.602;2024-01-06T09:12:55;6.24;86.38
77052;SHT30;65980;44.898;8.602;2024-01-06T09:16:00;6.24;86.39
77052;SHT30;65980;44.898;8.602;2024-01-06T09:19:05;6.10;86.65
77052;SHT30;65980;44.898;8.602;2024-01-06T09:22:08;6.16;87.01
77052;SHT30;65980;44.898;8.602;2024-01-06T09:25:13;6.02;87.26
77052;SHT30;65980;44.898;8.602;2024-01-06T09:28:19;5.96;88.12
77052;SHT30;65980;44.898;8.602;2024-01-06T09:31:24;5.96;88.51
77052;SHT30;65980;44.898;8.602;2024-01-06T09:34:29;6.18;87.79
77052;SHT30;65980;44.898;8.602;2024-01-06T09:37:33;6.37;87.41
77052;SHT30;65980;44.898;8.602;2024-01-06T09:40:41;6.58;87.25
77052;SHT30;65980;44.898;8.602;2024-01-06T09:43:50;6.62;85.54
77052;SHT30;65980;44.898;8.602;2024-01-06T09:46:58;6.73;85.97
77052;SHT30;65980;44.898;8.602;2024-01-06T09:50:06;6.68;85.83
77052;SHT30;65980;44.898;8.602;2024-01-06T09:53:13;6.69;85.39
77052;SHT30;65980;44.898;8.602;2024-01-06T09:56:19;6.79;85.48
77052;SHT30;65980;44.898;8.602;2024-01-06T09:59:23;6.82;84.96
77052;SHT30;65980;44.898;8.602;2024-01-06T10:02:28;6.89;85.46
77052;SHT30;65980;44.898;8.602;2024-01-06T10:05:32;6.61;85.73
77052;SHT30;65980;44.898;8.602;2024-01-06T10:08:37;6.87;85.36
77052;SHT30;65980;44.898;8.602;2024-01-06T10:11:44;6.59;85.48
77052;SHT30;65980;44.898;8.602;2024-01-06T10:14:49;6.53;86.81
77052;SHT30;65980;44.898;8.602;2024-01-06T10:17:53;6.80;85.41
77052;SHT30;65980;44.898;8.602;2024-01-06T10:21:05;7.00;85.59
77052;SHT30;65980;44.898;8.602;2024-01-06T10:24:11;7.14;85.46
77052;SHT30;65980;44.898;8.602;2024-01-06T10:27:16;7.21;85.13
77052;SHT30;65980;44.898;8.602;2024-01-06T10:30:21;7.21;84.42
77052;SHT30;65980;44.898;8.602;2024-01-06T10:33:25;7.22;84.10
77052;SHT30;65980;44.898;8.602;2024-01-06T10:36:29;7.31;84.14
77052;SHT30;65980;44.898;8.602;2024-01-06T10:39:34;7.04;84.31
77052;SHT30;65980;44.898;8.602;2024-01-06T10:42:40;7.21;84.02
77052;SHT30;65980;44.898;8.602;2024-01-06T10:45:47;7.27;83.92
77052;SHT30;65980;44.898;8.602;2024-01-06T10:48:52;7.38;82.91
77052;SHT30;65980;44.898;8.602;2024-01-06T10:52:00;7.51;82.81
77052;SHT30;65980;44.898;8.602;2024-01-06T10:55:05;7.44;82.84
77052;SHT30;65980;44.898;8.602;2024-01-06T10:58:11;7.49;83.10
77052;SHT30;65980;44.898;8.602;2024-01-06T11:01:20;7.55;83.02
77052;SHT30;65980;44.898;8.602;2024-01-06T11:04:26;7.59;82.27
77052;SHT30;65980;44.898;8.602;2024-01-06T11:07:31;7.61;81.75
77052;SHT30;65980;44.898;8.602;2024-01-06T11:10:36;7.58;82.35
77052;SHT30;65980;44.898;8.602;2024-01-06T11:13:41;7.61;82.10
77052;SHT30;65980;44.898;8.602;2024-01-06T11:16:49;7.63;82.10
77052;SHT30;65980;44.898;8.602;2024-01-06T11:20:05;7.59;82.80
77052;SHT30;65980;44.898;8.602;2024-01-06T11:23:20;7.73;82.82
77052;SHT30;65980;44.898;8.602;2024-01-06T11:26:25;7.89;82.71
77052;SHT30;65980;44.898;8.602;2024-01-06T11:29:31;7.83;82.81
77052;SHT30;65980;44.898;8.602;2024-01-06T11:32:37;7.62;82.82
77052;SHT30;65980;44.898;8.602;2024-01-06T11:35:45;7.85;81.76
77052;SHT30;65980;44.898;8.602;2024-01-06T11:38:54;7.91;81.05
77052;SHT30;65980;44.898;8.602;2024-01-06T11:41:58;8.03;81.12
77052;SHT30;65980;44.898;8.602;2024-01-06T11:45:04;7.96;81.11
77052;SHT30;65980;44.898;8.602;2024-01-06T11:48:12;8.21;80.14
77052;SHT30;65980;44.898;8.602;2024-01-06T11:51:16;8.17;80.36
77052;SHT30;65980;44.898;8.602;2024-01-06T11:54:22;7.98;80.67
77052;SHT30;65980;44.898;8.602;2024-01-06T11:57:27;7.89;81.79
77052;SHT30;65980;44.898;8.602;2024-01-06T12:00:34;8.03;81.51
77052;SHT30;65980;44.898;8.602;2024-01-06T12:03:40;7.97;81.36
77052;SHT30;65980;44.898;8.602;2024-01-06T12:06:45;8.15;81.26
77052;SHT30;65980;44.898;8.602;2024-01-06T12:09:52;8.22;80.83
77052;SHT30;65980;44.898;8.602;2024-01-06T12:13:05;8.28;80.94
77052;SHT30;65980;44.898;8.602;2024-01-06T12:16:13;8.22;81.38
77052;SHT30;65980;44.898;8.602;2024-01-06T12:19:17;8.24;81.85
77052;SHT30;65980;44.898;8.602;2024-01-06T12:22:21;8.21;82.16
77052;SHT30;65980;44.898;8.602;2024-01-06T12:25:26;8.15;82.20
77052;SHT30;65980;44.898;8.602;2024-01-06T12:28:35;8.24;82.59
77052;SHT30;65980;44.898;8.602;2024-01-06T12:31:40;8.24;82.49
77052;SHT30;65980;44.898;8.602;2024-01-06T12:34:46;8.45;82.45
77052;SHT30;65980;44.898;8.602;2024-01-06T12:37:51;8.46;82.35
77052;SHT30;65980;44.898;8.602;2024-01-06T12:40:56;8.49;82.30
77052;SHT30;65980;44.898;8.602;2024-01-06T12:44:02;8.42;82.54
77052;SHT30;65980;44.898;8.602;2024-01-06T12:47:06;8.49;82.15
77052;SHT30;65980;44.898;8.602;2024-01-06T12:50:11;8.55;82.36
77052;SHT30;65980;44.898;8.602;2024-01-06T12:53:15;8.59;81.83
77052;SHT30;65980;44.898;8.602;2024-01-06T12:56:21;8.60;81.77
77052;SHT30;65980;44.898;8.602;2024-01-06T12:59:25;8.67;81.80
77052;SHT30;65980;44.898;8.602;2024-01-06T13:02:29;8.75;82.10
77052;SHT30;65980;44.898;8.602;2024-01-06T13:05:34;8.76;81.90
77052;SHT30;65980;44.898;8.602;2024-01-06T13:08:40;8.79;81.90
77052;SHT30;65980;44.898;8.602;2024-01-06T13:11:44;8.67;81.02
77052;SHT30;65980;44.898;8.602;2024-01-06T13:14:50;8.69;81.52
77052;SHT30;65980;44.898;8.602;2024-01-06T13:17:55;8.53;81.25
77052;SHT30;65980;44.898;8.602;2024-01-06T13:21:00;8.45;82.31
77052;SHT30;65980;44.898;8.602;2024-01-06T13:24:06;8.76;81.75
77052;SHT30;65980;44.898;8.602;2024-01-06T13:27:12;8.79;81.50
77052;SHT30;65980;44.898;8.602;2024-01-06T13:30:16;8.84;81.14
77052;SHT30;65980;44.898;8.602;2024-01-06T13:33:21;8.73;81.48
77052;SHT30;65980;44.898;8.602;2024-01-06T13:36:27;8.46;81.65
77052;SHT30;65980;44.898;8.602;2024-01-06T13:39:31;8.67;81.73
77052;SHT30;65980;44.898;8.602;2024-01-06T13:42:37;8.76;81.79
77052;SHT30;65980;44.898;8.602;2024-01-06T13:45:42;8.76;82.10
77052;SHT30;65980;44.898;8.602;2024-01-06T13:48:48;8.56;82.21
77052;SHT30;65980;44.898;8.602;2024-01-06T13:51:53;8.69;81.88
77052;SHT30;65980;44.898;8.602;2024-01-06T13:54:58;8.49;82.90
77052;SHT30;65980;44.898;8.602;2024-01-06T13:58:03;8.70;82.81
77052;SHT30;65980;44.898;8.602;2024-01-06T14:01:08;8.84;82.40
77052;SHT30;65980;44.898;8.602;2024-01-06T14:04:14;8.76;82.36
77052;SHT30;65980;44.898;8.602;2024-01-06T14:07:19;8.76;82.37
77052;SHT30;65980;44.898;8.602;2024-01-06T14:10:25;8.73;82.64
77052;SHT30;65980;44.898;8.602;2024-01-06T14:13:30;8.58;83.50
77052;SHT30;65980;44.898;8.602;2024-01-06T14:16:36;8.70;83.42
77052;SHT30;65980;44.898;8.602;2024-01-06T14:19:42;8.88;82.96
77052;SHT30;65980;44.898;8.602;2024-01-06T14:22:46;9.04;82.51
77052;SHT30;65980;44.898;8.602;2024-01-06T14:25:51;8.93;82.02
77052;SHT30;65980;44.898;8.602;2024-01-06T14:28:55;9.00;82.03
77052;SHT30;65980;44.898;8.602;2024-01-06T14:32:00;9.01;82.03
77052;SHT30;65980;44.898;8.602;2024-01-06T14:35:05;9.05;82.25
77052;SHT30;65980;44.898;8.602;2024-01-06T14:38:10;8.75;82.68
77052;SHT30;65980;44.898;8.602;2024-01-06T14:41:18;8.69;83.21
77052;SHT30;65980;44.898;8.602;2024-01-06T14:44:26;8.83;82.49
77052;SHT30;65980;44.898;8.602;2024-01-06T14:47:35;8.91;82.72
77052;SHT30;65980;44.898;8.602;2024-01-06T14:50:39;8.93;82.75
77052;SHT30;65980;44.898;8.602;2024-01-06T14:53:43;8.90;82.44
77052;SHT30;65980;44.898;8.602;2024-01-06T14:56:52;8.87;83.00
77052;SHT30;65980;44.898;8.602;2024-01-06T14:59:57;8.90;82.89
77052;SHT30;65980;44.898;8.602;2024-01-06T15:03:03;8.88;83.11
77052;SHT30;65980;44.898;8.602;2024-01-06T15:06:09;8.94;83.33
77052;SHT30;65980;44.898;8.602;2024-01-06T15:09:13;8.90;83.67
77052;SHT30;65980;44.898;8.602;2024-01-06T15:12:21;8.79;84.21
77052;SHT30;65980;44.898;8.602;2024-01-06T15:15:25;8.91;83.94
77052;SHT30;65980;44.898;8.602;2024-01-06T15:18:30;8.93;83.58
77052;SHT30;65980;44.898;8.602;2024-01-06T15:21:35;8.91;83.54
77052;SHT30;65980;44.898;8.602;2024-01-06T15:24:41;8.91;84.10
77052;SHT30;65980;44.898;8.602;2024-01-06T15:27:48;8.63;85.03
77052;SHT30;65980;44.898;8.602;2024-01-06T15:30:52;8.75;84.52
77052;SHT30;65980;44.898;8.602;2024-01-06T15:33:58;8.70;84.48
77052;SHT30;65980;44.898;8.602;2024-01-06T15:37:03;8.62;85.00
77052;SHT30;65980;44.898;8.602;2024-01-06T15:40:08;8.60;84.87
77052;SHT30;65980;44.898;8.602;2024-01-06T15:43:13;8.42;85.47
77052;SHT30;65980;44.898;8.602;2024-01-06T15:46:17;8.39;85.62
77052;SHT30;65980;44.898;8.602;2024-01-06T15:49:21;8.11;87.98
77052;SHT30;65980;44.898;8.602;2024-01-06T15:52:25;8.39;86.57
77052;SHT30;65980;44.898;8.602;2024-01-06T15:55:29;7.97;88.84
77052;SHT30;65980;44.898;8.602;2024-01-06T15:58:33;8.15;87.77
77052;SHT30;65980;44.898;8.602;2024-01-06T16:01:37;8.21;87.38
77052;SHT30;65980;44.898;8.602;2024-01-06T16:04:41;8.17;87.77
77052;SHT30;65980;44.898;8.602;2024-01-06T16:07:45;8.22;87.67
77052;SHT30;65980;44.898;8.602;2024-01-06T16:10:49;8.34;87.04
77052;SHT30;65980;44.898;8.602;2024-01-06T16:13:53;8.34;87.03
77052;SHT30;65980;44.898;8.602;2024-01-06T16:16:57;8.27;87.34
77052;SHT30;65980;44.898;8.602;2024-01-06T16:20:04;8.24;87.48
77052;SHT30;65980;44.898;8.602;2024-01-06T16:23:10;8.38;87.35
77052;SHT30;65980;44.898;8.602;2024-01-06T16:26:20;8.41;87.12
77052;SHT30;65980;44.898;8.602;2024-01-06T16:29:25;8.28;87.16
77052;SHT30;65980;44.898;8.602;2024-01-06T16:32:30;8.32;87.59
77052;SHT30;65980;44.898;8.602;2024-01-06T16:35:34;8.20;87.17
77052;SHT30;65980;44.898;8.602;2024-01-06T16:38:39;8.32;87.22
77052;SHT30;65980;44.898;8.602;2024-01-06T16:41:43;8.35;86.82
77052;SHT30;65980;44.898;8.602;2024-01-06T16:44:48;8.37;86.95
77052;SHT30;65980;44.898;8.602;2024-01-06T16:47:52;8.44;86.79
77052;SHT30;65980;44.898;8.602;2024-01-06T16:50:56;8.39;86.79
77052;SHT30;65980;44.898;8.602;2024-01-06T16:54:01;8.35;87.05
77052;SHT30;65980;44.898;8.602;2024-01-06T16:57:06;8.39;86.86
77052;SHT30;65980;44.898;8.602;2024-01-06T17:00:10;8.37;86.81
77052;SHT30;65980;44.898;8.602;2024-01-06T17:03:15;8.04;87.80
77052;SHT30;65980;44.898;8.602;2024-01-06T17:06:19;8.03;87.88
77052;SHT30;65980;44.898;8.602;2024-01-06T17:09:23;8.07;87.89
77052;SHT30;65980;44.898;8.602;2024-01-06T17:12:27;8.01;87.98
77052;SHT30;65980;44.898;8.602;2024-01-06T17:15:31;8.14;87.68
77052;SHT30;65980;44.898;8.602;2024-01-06T17:18:35;8.27;87.35
77052;SHT30;65980;44.898;8.602;2024-01-06T17:21:40;7.79;89.23
77052;SHT30;65980;44.898;8.602;2024-01-06T17:24:44;7.79;89.28
77052;SHT30;65980;44.898;8.602;2024-01-06T17:27:48;7.86;89.07
77052;SHT30;65980;44.898;8.602;2024-01-06T17:30:52;8.01;88.44
77052;SHT30;65980;44.898;8.602;2024-01-06T17:33:57;8.13;88.27
77052;SHT30;65980;44.898;8.602;2024-01-06T17:37:01;8.20;87.99
77052;SHT30;65980;44.898;8.602;2024-01-06T17:40:06;8.32;87.84
77052;SHT30;65980;44.898;8.602;2024-01-06T17:43:11;8.15;87.94
77052;SHT30;65980;44.898;8.602;2024-01-06T17:46:18;8.15;88.13
77052;SHT30;65980;44.898;8.602;2024-01-06T17:49:23;8.03;88.33
77052;SHT30;65980;44.898;8.602;2024-01-06T17:52:27;8.00;88.48
77052;SHT30;65980;44.898;8.602;2024-01-06T17:55:32;8.18;88.00
77052;SHT30;65980;44.898;8.602;2024-01-06T17:58:36;8.22;87.62
77052;SHT30;65980;44.898;8.602;2024-01-06T18:01:42;8.22;87.49
77052;SHT30;65980;44.898;8.602;2024-01-06T18:04:46;8.07;87.31
77052;SHT30;65980;44.898;8.602;2024-01-06T18:07:51;7.76;88.31
77052;SHT30;65980;44.898;8.602;2024-01-06T18:10:55;7.83;88.31
77052;SHT30;65980;44.898;8.602;2024-01-06T18:13:59;7.94;87.93
77052;SHT30;65980;44.898;8.602;2024-01-06T18:17:03;7.70;88.63
77052;SHT30;65980;44.898;8.602;2024-01-06T18:20:09;7.80;88.56
77052;SHT30;65980;44.898;8.602;2024-01-06T18:23:14;7.66;88.80
77052;SHT30;65980;44.898;8.602;2024-01-06T18:26:18;7.65;88.97
77052;SHT30;65980;44.898;8.602;2024-01-06T18:29:21;7.83;88.27
77052;SHT30;65980;44.898;8.602;2024-01-06T18:32:26;7.73;88.17
77052;SHT30;65980;44.898;8.602;2024-01-06T18:35:31;7.49;89.01
77052;SHT30;65980;44.898;8.602;2024-01-06T18:38:35;7.48;89.73
77052;SHT30;65980;44.898;8.602;2024-01-06T18:41:41;7.51;89.00
77052;SHT30;65980;44.898;8.602;2024-01-06T18:44:45;7.70;88.62
77052;SHT30;65980;44.898;8.602;2024-01-06T18:47:49;7.62;88.56
77052;SHT30;65980;44.898;8.602;2024-01-06T18:50:53;7.68;88.26
77052;SHT30;65980;44.898;8.602;2024-01-06T18:53:57;7.47;89.04
77052;SHT30;65980;44.898;8.602;2024-01-06T18:57:01;7.38;89.62
77052;SHT30;65980;44.898;8.602;2024-01-06T19:00:07;7.59;88.96
77052;SHT30;65980;44.898;8.602;2024-01-06T19:03:12;7.70;88.50
77052;SHT30;65980;44.898;8.602;2024-01-06T19:06:19;7.73;88.44
77052;SHT30;65980;44.898;8.602;2024-01-06T19:09:24;7.79;88.14
77052;SHT30;65980;44.898;8.602;2024-01-06T19:12:30;7.52;88.50
77052;SHT30;65980;44.898;8.602;2024-01-06T19:15:37;7.44;88.74
77052;SHT30;65980;44.898;8.602;2024-01-06T19:18:43;7.34;89.73
77052;SHT30;65980;44.898;8.602;2024-01-06T19:21:47;7.32;89.22
77052;SHT30;65980;44.898;8.602;2024-01-06T19:24:53;7.36;89.18
77052;SHT30;65980;44.898;8.602;2024-01-06T19:27:58;7.36;88.73
77052;SHT30;65980;44.898;8.602;2024-01-06T19:31:04;7.36;89.02
77052;SHT30;65980;44.898;8.602;2024-01-06T19:34:09;7.35;88.73
77052;SHT30;65980;44.898;8.602;2024-01-06T19:37:13;7.39;89.17
77052;SHT30;65980;44.898;8.602;2024-01-06T19:40:18;7.30;89.68
77052;SHT30;65980;44.898;8.602;2024-01-06T19:43:26;7.55;88.99
77052;SHT30;65980;44.898;8.602;2024-01-06T19:46:31;7.68;88.47